This is the latest recevied weather packets stored in our database for station/object 5B4APJ-13. If no packets are shown the sender has not sent any weather packets the latest 10 day(s).
| Time | Temp. | Humidity | Pressure | Rain* | Wind** | Luminosity | Snow |
|---|---|---|---|---|---|---|---|
| 1777204630 | 25° C | 41% | 1010.4 hPa | 0 mm | 3.13 m/s, 86° | 682 W/m² | - |
| 1777204330 | 24.44° C | 46% | 1010.8 hPa | 0 mm | 4.02 m/s, 55° | 706 W/m² | - |
| 1777204030 | 24.44° C | 47% | 1010.6 hPa | 0 mm | 4.92 m/s, 49° | 736 W/m² | - |
| 1777203730 | 25° C | 47% | 1010.7 hPa | 0 mm | 2.68 m/s, 59° | 747 W/m² | - |
| 1777203430 | 24.44° C | 47% | 1011.2 hPa | 0 mm | 2.68 m/s, 80° | 854 W/m² | - |
| 1777203130 | 23.89° C | 48% | 1011.3 hPa | 0 mm | 1.79 m/s, 52° | 823 W/m² | - |
| 1777202830 | 23.33° C | 49% | 1011.4 hPa | 0 mm | 2.68 m/s, 73° | 829 W/m² | - |
| 1777202530 | 23.89° C | 43% | 1011.5 hPa | 0 mm | 4.02 m/s, 75° | 220 W/m² | - |
| 1777202230 | 23.89° C | 41% | 1011.9 hPa | 0 mm | 2.68 m/s, 90° | 184 W/m² | - |
| 1777201930 | 23.89° C | 39% | 1012 hPa | 0 mm | 2.68 m/s, 68° | 172 W/m² | - |
| 1777201630 | 23.89° C | 40% | 1012.1 hPa | 0 mm | 3.58 m/s, 117° | 220 W/m² | - |
| 1777201330 | 24.44° C | 40% | 1012 hPa | 0 mm | 4.92 m/s, 105° | 158 W/m² | - |
| 1777201030 | 24.44° C | 36% | 1012.3 hPa | 0 mm | 1.79 m/s, 94° | 184 W/m² | - |
| 1777200730 | 23.89° C | 38% | 1012.1 hPa | 0 mm | 1.34 m/s, 66° | 239 W/m² | - |
| 1777200430 | 23.33° C | 46% | 1011.9 hPa | 0 mm | 3.58 m/s, 103° | 356 W/m² | - |
| 1777200130 | 23.33° C | 50% | 1012.3 hPa | 0 mm | 2.68 m/s, 64° | 184 W/m² | - |
| 1777199830 | 23.89° C | 50% | 1012.5 hPa | 0 mm | 2.24 m/s, 69° | 169 W/m² | - |
| 1777199530 | 23.89° C | 49% | 1012.7 hPa | 0 mm | 3.58 m/s, 77° | 203 W/m² | - |
| 1777199230 | 23.89° C | 49% | 1012.7 hPa | 0 mm | 2.24 m/s, 41° | 162 W/m² | - |
| 1777198930 | 24.44° C | 48% | 1012.5 hPa | 0 mm | 1.34 m/s, 51° | 193 W/m² | - |
| 1777198630 | 23.89° C | 47% | 1012.5 hPa | 0 mm | 3.58 m/s, 74° | 323 W/m² | - |
| 1777198330 | 23.89° C | 47% | 1012.1 hPa | 0 mm | 4.02 m/s, 25° | 876 W/m² | - |
| 1777198030 | 23.33° C | 49% | 1012.4 hPa | 0 mm | 1.34 m/s, 301° | 513 W/m² | - |
| 1777197731 | 23.33° C | 50% | 1012.3 hPa | 0 mm | 1.79 m/s, 68° | 248 W/m² | - |
| 1777197431 | 23.33° C | 49% | 1012.5 hPa | 0 mm | 1.79 m/s, 29° | 135 W/m² | - |
* Rain latest hour (hover to see other rain measurements)
** Current wind speed in m/s (hover to see current wind gust speed)